sensor_id;sensor_type;location;lat;lon;timestamp;pressure;altitude;pressure_sealevel;temperature
71649;BMP180;59492;45.638;11.714;2022-12-07T00:01:12;100859.00;;;18.20
71649;BMP180;59492;45.638;11.714;2022-12-07T00:03:40;100863.60;;;18.20
71649;BMP180;59492;45.638;11.714;2022-12-07T00:06:07;100863.60;;;18.20
71649;BMP180;59492;45.638;11.714;2022-12-07T00:08:34;100864.40;;;18.20
71649;BMP180;59492;45.638;11.714;2022-12-07T00:11:04;100855.60;;;18.16
71649;BMP180;59492;45.638;11.714;2022-12-07T00:13:31;100854.40;;;18.10
71649;BMP180;59492;45.638;11.714;2022-12-07T00:16:08;100850.00;;;18.10
71649;BMP180;59492;45.638;11.714;2022-12-07T00:18:34;100848.20;;;18.16
71649;BMP180;59492;45.638;11.714;2022-12-07T00:21:11;100851.80;;;18.20
71649;BMP180;59492;45.638;11.714;2022-12-07T00:23:37;100851.80;;;18.20
71649;BMP180;59492;45.638;11.714;2022-12-07T00:26:13;100851.20;;;18.18
71649;BMP180;59492;45.638;11.714;2022-12-07T00:28:39;100852.60;;;18.14
71649;BMP180;59492;45.638;11.714;2022-12-07T00:31:10;100851.00;;;18.14
71649;BMP180;59492;45.638;11.714;2022-12-07T00:33:36;100853.00;;;18.10
71649;BMP180;59492;45.638;11.714;2022-12-07T00:36:05;100851.80;;;18.20
71649;BMP180;59492;45.638;11.714;2022-12-07T00:38:33;100854.60;;;18.20
71649;BMP180;59492;45.638;11.714;2022-12-07T00:41:10;100854.40;;;18.20
71649;BMP180;59492;45.638;11.714;2022-12-07T00:43:36;100851.40;;;18.20
71649;BMP180;59492;45.638;11.714;2022-12-07T00:46:02;100851.40;;;18.16
71649;BMP180;59492;45.638;11.714;2022-12-07T00:48:28;100847.80;;;18.12
71649;BMP180;59492;45.638;11.714;2022-12-07T00:50:53;100849.20;;;18.10
71649;BMP180;59492;45.638;11.714;2022-12-07T00:53:19;100847.20;;;18.10
71649;BMP180;59492;45.638;11.714;2022-12-07T00:55:45;100841.40;;;18.20
71649;BMP180;59492;45.638;11.714;2022-12-07T00:58:11;100843.60;;;18.20
71649;BMP180;59492;45.638;11.714;2022-12-07T01:00:38;100833.60;;;18.20
71649;BMP180;59492;45.638;11.714;2022-12-07T01:03:06;100836.80;;;18.18
71649;BMP180;59492;45.638;11.714;2022-12-07T01:05:31;100843.60;;;18.14
71649;BMP180;59492;45.638;11.714;2022-12-07T01:07:57;100846.40;;;18.10
71649;BMP180;59492;45.638;11.714;2022-12-07T01:10:23;100848.60;;;18.10
71649;BMP180;59492;45.638;11.714;2022-12-07T01:12:48;100843.00;;;18.10
71649;BMP180;59492;45.638;11.714;2022-12-07T01:15:14;100832.60;;;18.18
71649;BMP180;59492;45.638;11.714;2022-12-07T01:17:40;100830.80;;;18.20
71649;BMP180;59492;45.638;11.714;2022-12-07T01:20:07;100834.00;;;18.20
71649;BMP180;59492;45.638;11.714;2022-12-07T01:22:37;100833.40;;;18.12
71649;BMP180;59492;45.638;11.714;2022-12-07T01:25:04;100831.20;;;18.10
71649;BMP180;59492;45.638;11.714;2022-12-07T01:27:30;100833.60;;;18.10
71649;BMP180;59492;45.638;11.714;2022-12-07T01:29:56;100826.60;;;18.10
71649;BMP180;59492;45.638;11.714;2022-12-07T01:32:21;100825.60;;;18.10
71649;BMP180;59492;45.638;11.714;2022-12-07T01:34:50;100826.20;;;18.10
71649;BMP180;59492;45.638;11.714;2022-12-07T01:37:16;100833.00;;;18.20
71649;BMP180;59492;45.638;11.714;2022-12-07T01:39:41;100833.40;;;18.12
71649;BMP180;59492;45.638;11.714;2022-12-07T01:42:11;100829.20;;;18.10
71649;BMP180;59492;45.638;11.714;2022-12-07T01:47:41;100819.60;;;18.00
71649;BMP180;59492;45.638;11.714;2022-12-07T01:50:08;100816.80;;;18.04
71649;BMP180;59492;45.638;11.714;2022-12-07T01:52:36;100820.80;;;18.00
71649;BMP180;59492;45.638;11.714;2022-12-07T01:55:06;100818.80;;;18.10
71649;BMP180;59492;45.638;11.714;2022-12-07T01:57:34;100820.60;;;18.10
71649;BMP180;59492;45.638;11.714;2022-12-07T02:00:02;100818.60;;;18.10
71649;BMP180;59492;45.638;11.714;2022-12-07T02:02:33;100817.60;;;18.10
71649;BMP180;59492;45.638;11.714;2022-12-07T02:05:01;100814.20;;;18.04
71649;BMP180;59492;45.638;11.714;2022-12-07T02:07:28;100812.40;;;18.02
71649;BMP180;59492;45.638;11.714;2022-12-07T02:09:54;100809.40;;;18.00
71649;BMP180;59492;45.638;11.714;2022-12-07T02:12:21;100799.80;;;18.00
71649;BMP180;59492;45.638;11.714;2022-12-07T02:14:48;100798.80;;;18.08
71649;BMP180;59492;45.638;11.714;2022-12-07T02:17:31;100800.40;;;18.10
71649;BMP180;59492;45.638;11.714;2022-12-07T02:28:30;100798.80;;;17.92
71649;BMP180;59492;45.638;11.714;2022-12-07T02:31:01;100800.20;;;18.00
71649;BMP180;59492;45.638;11.714;2022-12-07T02:33:35;100802.80;;;18.00
71649;BMP180;59492;45.638;11.714;2022-12-07T02:36:20;100807.80;;;18.00
71649;BMP180;59492;45.638;11.714;2022-12-07T02:39:08;100806.20;;;18.00
71649;BMP180;59492;45.638;11.714;2022-12-07T02:41:44;100806.60;;;18.00
71649;BMP180;59492;45.638;11.714;2022-12-07T02:44:14;100803.80;;;17.98
71649;BMP180;59492;45.638;11.714;2022-12-07T02:46:58;100809.20;;;17.96
71649;BMP180;59492;45.638;11.714;2022-12-07T02:49:25;100807.60;;;17.90
71649;BMP180;59492;45.638;11.714;2022-12-07T02:51:52;100806.40;;;17.80
71649;BMP180;59492;45.638;11.714;2022-12-07T02:54:20;100811.00;;;17.90
71649;BMP180;59492;45.638;11.714;2022-12-07T03:10:08;100800.40;;;17.90
71649;BMP180;59492;45.638;11.714;2022-12-07T03:12:48;100802.80;;;17.88
71649;BMP180;59492;45.638;11.714;2022-12-07T03:15:24;100798.80;;;17.90
71649;BMP180;59492;45.638;11.714;2022-12-07T03:17:51;100801.80;;;17.94
71649;BMP180;59492;45.638;11.714;2022-12-07T03:20:22;100803.00;;;17.90
71649;BMP180;59492;45.638;11.714;2022-12-07T03:22:49;100799.20;;;17.90
71649;BMP180;59492;45.638;11.714;2022-12-07T03:25:17;100794.60;;;17.90
71649;BMP180;59492;45.638;11.714;2022-12-07T03:28:00;100788.40;;;17.90
71649;BMP180;59492;45.638;11.714;2022-12-07T03:30:37;100776.40;;;17.80
71649;BMP180;59492;45.638;11.714;2022-12-07T03:33:14;100777.00;;;17.80
71649;BMP180;59492;45.638;11.714;2022-12-07T03:35:59;100774.40;;;17.90
71649;BMP180;59492;45.638;11.714;2022-12-07T03:38:40;100776.80;;;17.90
71649;BMP180;59492;45.638;11.714;2022-12-07T03:41:22;100774.00;;;17.90
71649;BMP180;59492;45.638;11.714;2022-12-07T03:43:48;100773.00;;;17.86
71649;BMP180;59492;45.638;11.714;2022-12-07T03:46:24;100769.20;;;17.82
71649;BMP180;59492;45.638;11.714;2022-12-07T03:49:00;100765.40;;;17.80
71649;BMP180;59492;45.638;11.714;2022-12-07T03:54:19;100764.60;;;17.80
71649;BMP180;59492;45.638;11.714;2022-12-07T03:56:47;100765.60;;;17.80
71649;BMP180;59492;45.638;11.714;2022-12-07T03:59:14;100763.40;;;17.90
71649;BMP180;59492;45.638;11.714;2022-12-07T04:01:45;100770.00;;;17.88
71649;BMP180;59492;45.638;11.714;2022-12-07T04:04:17;100771.20;;;17.80
71649;BMP180;59492;45.638;11.714;2022-12-07T04:06:42;100765.20;;;17.80
71649;BMP180;59492;45.638;11.714;2022-12-07T04:09:08;100761.00;;;17.80
71649;BMP180;59492;45.638;11.714;2022-12-07T04:11:34;100759.20;;;17.80
71649;BMP180;59492;45.638;11.714;2022-12-07T04:13:59;100755.40;;;17.80
71649;BMP180;59492;45.638;11.714;2022-12-07T04:17:02;100759.40;;;17.80
71649;BMP180;59492;45.638;11.714;2022-12-07T04:19:30;100754.40;;;17.80
71649;BMP180;59492;45.638;11.714;2022-12-07T04:21:57;100754.60;;;17.80
71649;BMP180;59492;45.638;11.714;2022-12-07T04:24:24;100756.00;;;17.80
71649;BMP180;59492;45.638;11.714;2022-12-07T04:26:50;100751.40;;;17.80
71649;BMP180;59492;45.638;11.714;2022-12-07T04:29:16;100748.20;;;17.78
71649;BMP180;59492;45.638;11.714;2022-12-07T04:31:42;100748.40;;;17.74
71649;BMP180;59492;45.638;11.714;2022-12-07T04:34:08;100748.80;;;17.70
71649;BMP180;59492;45.638;11.714;2022-12-07T04:36:34;100748.40;;;17.80
71649;BMP180;59492;45.638;11.714;2022-12-07T04:39:00;100745.60;;;17.80
71649;BMP180;59492;45.638;11.714;2022-12-07T04:41:31;100744.80;;;17.80
71649;BMP180;59492;45.638;11.714;2022-12-07T04:44:03;100742.20;;;17.72
71649;BMP180;59492;45.638;11.714;2022-12-07T04:46:31;100744.60;;;17.60
71649;BMP180;59492;45.638;11.714;2022-12-07T04:48:57;100740.60;;;17.68
71649;BMP180;59492;45.638;11.714;2022-12-07T04:51:27;100741.20;;;17.66
71649;BMP180;59492;45.638;11.714;2022-12-07T04:53:54;100740.40;;;17.62
71649;BMP180;59492;45.638;11.714;2022-12-07T04:56:22;100735.40;;;17.70
71649;BMP180;59492;45.638;11.714;2022-12-07T04:58:50;100736.40;;;17.70
71649;BMP180;59492;45.638;11.714;2022-12-07T05:01:19;100730.60;;;17.70
71649;BMP180;59492;45.638;11.714;2022-12-07T05:03:46;100729.40;;;17.70
71649;BMP180;59492;45.638;11.714;2022-12-07T05:06:13;100727.20;;;17.70
71649;BMP180;59492;45.638;11.714;2022-12-07T05:08:39;100723.60;;;17.64
71649;BMP180;59492;45.638;11.714;2022-12-07T05:11:06;100723.20;;;17.60
71649;BMP180;59492;45.638;11.714;2022-12-07T05:13:32;100726.80;;;17.60
71649;BMP180;59492;45.638;11.714;2022-12-07T05:15:58;100728.60;;;17.68
71649;BMP180;59492;45.638;11.714;2022-12-07T05:18:25;100729.20;;;17.70
71649;BMP180;59492;45.638;11.714;2022-12-07T05:20:52;100729.60;;;17.70
71649;BMP180;59492;45.638;11.714;2022-12-07T05:23:18;100729.40;;;17.66
71649;BMP180;59492;45.638;11.714;2022-12-07T05:25:44;100729.80;;;17.62
71649;BMP180;59492;45.638;11.714;2022-12-07T05:28:10;100728.60;;;17.60
71649;BMP180;59492;45.638;11.714;2022-12-07T05:30:36;100729.60;;;17.60
71649;BMP180;59492;45.638;11.714;2022-12-07T05:33:02;100727.20;;;17.60
71649;BMP180;59492;45.638;11.714;2022-12-07T05:35:29;100727.60;;;17.60
71649;BMP180;59492;45.638;11.714;2022-12-07T05:37:55;100733.40;;;17.66
71649;BMP180;59492;45.638;11.714;2022-12-07T05:40:22;100729.20;;;17.60
71649;BMP180;59492;45.638;11.714;2022-12-07T05:42:48;100725.20;;;17.60
71649;BMP180;59492;45.638;11.714;2022-12-07T05:45:13;100726.20;;;17.60
71649;BMP180;59492;45.638;11.714;2022-12-07T05:47:39;100723.60;;;17.60
71649;BMP180;59492;45.638;11.714;2022-12-07T05:50:06;100726.00;;;17.58
71649;BMP180;59492;45.638;11.714;2022-12-07T05:52:31;100721.80;;;17.54
71649;BMP180;59492;45.638;11.714;2022-12-07T05:54:57;100722.20;;;17.60
71649;BMP180;59492;45.638;11.714;2022-12-07T05:57:22;100720.60;;;17.60
71649;BMP180;59492;45.638;11.714;2022-12-07T05:59:48;100724.80;;;17.60
71649;BMP180;59492;45.638;11.714;2022-12-07T06:02:15;100725.80;;;17.60
71649;BMP180;59492;45.638;11.714;2022-12-07T06:04:45;100719.00;;;17.54
71649;BMP180;59492;45.638;11.714;2022-12-07T06:07:13;100722.60;;;17.50
71649;BMP180;59492;45.638;11.714;2022-12-07T06:09:39;100728.60;;;17.50
71649;BMP180;59492;45.638;11.714;2022-12-07T06:12:05;100733.40;;;17.50
71649;BMP180;59492;45.638;11.714;2022-12-07T06:14:50;100736.20;;;17.50
71649;BMP180;59492;45.638;11.714;2022-12-07T06:17:16;100736.40;;;17.58
71649;BMP180;59492;45.638;11.714;2022-12-07T06:19:42;100733.40;;;17.52
71649;BMP180;59492;45.638;11.714;2022-12-07T06:22:09;100729.40;;;17.50
71649;BMP180;59492;45.638;11.714;2022-12-07T06:24:37;100730.40;;;17.50
71649;BMP180;59492;45.638;11.714;2022-12-07T06:27:03;100735.00;;;17.50
71649;BMP180;59492;45.638;11.714;2022-12-07T06:29:29;100732.60;;;17.50
71649;BMP180;59492;45.638;11.714;2022-12-07T06:31:54;100735.80;;;17.50
71649;BMP180;59492;45.638;11.714;2022-12-07T06:34:21;100739.20;;;17.50
71649;BMP180;59492;45.638;11.714;2022-12-07T06:36:48;100737.60;;;17.54
71649;BMP180;59492;45.638;11.714;2022-12-07T06:39:22;100737.60;;;17.50
71649;BMP180;59492;45.638;11.714;2022-12-07T06:41:48;100741.80;;;17.50
71649;BMP180;59492;45.638;11.714;2022-12-07T06:44:14;100742.00;;;17.50
71649;BMP180;59492;45.638;11.714;2022-12-07T06:46:40;100737.80;;;17.48
71649;BMP180;59492;45.638;11.714;2022-12-07T06:49:08;100735.40;;;17.48
71649;BMP180;59492;45.638;11.714;2022-12-07T06:51:34;100732.60;;;17.48
71649;BMP180;59492;45.638;11.714;2022-12-07T06:54:04;100733.40;;;17.50
71649;BMP180;59492;45.638;11.714;2022-12-07T06:56:30;100732.00;;;17.50
71649;BMP180;59492;45.638;11.714;2022-12-07T06:58:56;100736.20;;;17.50
71649;BMP180;59492;45.638;11.714;2022-12-07T07:01:24;100739.20;;;17.50
71649;BMP180;59492;45.638;11.714;2022-12-07T07:03:50;100740.40;;;17.56
71649;BMP180;59492;45.638;11.714;2022-12-07T07:06:15;100744.20;;;17.60
71649;BMP180;59492;45.638;11.714;2022-12-07T07:08:41;100747.80;;;17.60
71649;BMP180;59492;45.638;11.714;2022-12-07T07:11:07;100748.20;;;17.60
71649;BMP180;59492;45.638;11.714;2022-12-07T07:13:34;100752.20;;;17.60
71649;BMP180;59492;45.638;11.714;2022-12-07T07:15:59;100750.20;;;17.70
71649;BMP180;59492;45.638;11.714;2022-12-07T07:18:25;100754.00;;;17.70
71649;BMP180;59492;45.638;11.714;2022-12-07T07:20:51;100752.20;;;17.80
71649;BMP180;59492;45.638;11.714;2022-12-07T07:23:17;100754.00;;;17.80
71649;BMP180;59492;45.638;11.714;2022-12-07T07:25:42;100756.40;;;17.90
71649;BMP180;59492;45.638;11.714;2022-12-07T07:28:09;100752.80;;;17.90
71649;BMP180;59492;45.638;11.714;2022-12-07T07:30:34;100754.00;;;18.00
71649;BMP180;59492;45.638;11.714;2022-12-07T07:33:05;100758.60;;;18.10
71649;BMP180;59492;45.638;11.714;2022-12-07T07:35:39;100756.00;;;18.20
71649;BMP180;59492;45.638;11.714;2022-12-07T07:38:06;100758.40;;;18.12
71649;BMP180;59492;45.638;11.714;2022-12-07T07:40:32;100762.20;;;18.18
71649;BMP180;59492;45.638;11.714;2022-12-07T07:43:02;100767.00;;;18.24
71649;BMP180;59492;45.638;11.714;2022-12-07T07:45:33;100761.80;;;18.34
71649;BMP180;59492;45.638;11.714;2022-12-07T07:48:04;100764.80;;;18.40
71649;BMP180;59492;45.638;11.714;2022-12-07T07:50:30;100765.40;;;18.60
71649;BMP180;59492;45.638;11.714;2022-12-07T07:52:57;100762.20;;;18.80
71649;BMP180;59492;45.638;11.714;2022-12-07T07:55:22;100762.40;;;19.06
71649;BMP180;59492;45.638;11.714;2022-12-07T07:57:48;100766.80;;;19.28
71649;BMP180;59492;45.638;11.714;2022-12-07T08:00:15;100770.20;;;19.50
71649;BMP180;59492;45.638;11.714;2022-12-07T08:02:41;100772.20;;;19.70
71649;BMP180;59492;45.638;11.714;2022-12-07T08:05:08;100776.40;;;19.90
71649;BMP180;59492;45.638;11.714;2022-12-07T08:07:34;100778.40;;;20.04
71649;BMP180;59492;45.638;11.714;2022-12-07T08:09:59;100779.80;;;20.24
71649;BMP180;59492;45.638;11.714;2022-12-07T08:12:25;100781.40;;;20.50
71649;BMP180;59492;45.638;11.714;2022-12-07T08:14:51;100780.00;;;20.74
71649;BMP180;59492;45.638;11.714;2022-12-07T08:17:16;100781.20;;;20.96
71649;BMP180;59492;45.638;11.714;2022-12-07T08:19:42;100785.00;;;21.20
71649;BMP180;59492;45.638;11.714;2022-12-07T08:22:07;100789.80;;;21.40
71649;BMP180;59492;45.638;11.714;2022-12-07T08:24:34;100787.00;;;21.60
71649;BMP180;59492;45.638;11.714;2022-12-07T08:27:00;100787.60;;;21.80
71649;BMP180;59492;45.638;11.714;2022-12-07T08:29:26;100792.20;;;22.00
71649;BMP180;59492;45.638;11.714;2022-12-07T08:31:52;100793.20;;;22.20
71649;BMP180;59492;45.638;11.714;2022-12-07T08:34:17;100792.80;;;22.40
71649;BMP180;59492;45.638;11.714;2022-12-07T08:36:43;100794.20;;;22.60
71649;BMP180;59492;45.638;11.714;2022-12-07T08:39:09;100798.80;;;22.78
71649;BMP180;59492;45.638;11.714;2022-12-07T08:41:34;100798.40;;;22.98
71649;BMP180;59492;45.638;11.714;2022-12-07T08:44:00;100797.60;;;23.14
71649;BMP180;59492;45.638;11.714;2022-12-07T08:46:36;100800.80;;;23.36
71649;BMP180;59492;45.638;11.714;2022-12-07T08:49:08;100795.20;;;23.56
71649;BMP180;59492;45.638;11.714;2022-12-07T08:51:35;100798.20;;;23.72
71649;BMP180;59492;45.638;11.714;2022-12-07T08:54:04;100795.60;;;23.88
71649;BMP180;59492;45.638;11.714;2022-12-07T08:56:30;100797.80;;;24.04
71649;BMP180;59492;45.638;11.714;2022-12-07T08:58:57;100804.00;;;24.20
71649;BMP180;59492;45.638;11.714;2022-12-07T09:01:23;100810.80;;;24.34
71649;BMP180;59492;45.638;11.714;2022-12-07T09:03:48;100812.20;;;24.50
71649;BMP180;59492;45.638;11.714;2022-12-07T09:06:14;100810.20;;;24.62
71649;BMP180;59492;45.638;11.714;2022-12-07T09:08:42;100811.20;;;24.80
71649;BMP180;59492;45.638;11.714;2022-12-07T09:11:09;100814.00;;;24.92
71649;BMP180;59492;45.638;11.714;2022-12-07T09:13:34;100819.00;;;25.04
71649;BMP180;59492;45.638;11.714;2022-12-07T09:16:00;100815.20;;;25.14
71649;BMP180;59492;45.638;11.714;2022-12-07T09:18:26;100818.80;;;25.28
71649;BMP180;59492;45.638;11.714;2022-12-07T09:20:51;100822.00;;;25.38
71649;BMP180;59492;45.638;11.714;2022-12-07T09:23:17;100821.80;;;25.46
71649;BMP180;59492;45.638;11.714;2022-12-07T09:25:42;100821.80;;;25.56
71649;BMP180;59492;45.638;11.714;2022-12-07T09:28:08;100821.20;;;25.62
71649;BMP180;59492;45.638;11.714;2022-12-07T09:30:34;100820.80;;;25.70
71649;BMP180;59492;45.638;11.714;2022-12-07T09:33:00;100819.60;;;25.78
71649;BMP180;59492;45.638;11.714;2022-12-07T09:35:27;100818.80;;;25.86
71649;BMP180;59492;45.638;11.714;2022-12-07T09:37:52;100818.00;;;25.92
71649;BMP180;59492;45.638;11.714;2022-12-07T09:40:20;100820.40;;;26.00
71649;BMP180;59492;45.638;11.714;2022-12-07T09:42:50;100814.20;;;26.04
71649;BMP180;59492;45.638;11.714;2022-12-07T09:45:23;100813.00;;;26.10
71649;BMP180;59492;45.638;11.714;2022-12-07T09:47:50;100809.80;;;26.14
71649;BMP180;59492;45.638;11.714;2022-12-07T09:50:20;100806.40;;;26.16
71649;BMP180;59492;45.638;11.714;2022-12-07T09:52:47;100801.60;;;26.14
71649;BMP180;59492;45.638;11.714;2022-12-07T09:55:16;100796.60;;;26.10
71649;BMP180;59492;45.638;11.714;2022-12-07T09:57:44;100795.20;;;26.00
71649;BMP180;59492;45.638;11.714;2022-12-07T10:00:14;100795.80;;;25.84
71649;BMP180;59492;45.638;11.714;2022-12-07T10:02:46;100797.60;;;25.70
71649;BMP180;59492;45.638;11.714;2022-12-07T10:05:36;100797.20;;;25.62
71649;BMP180;59492;45.638;11.714;2022-12-07T10:08:00;100795.20;;;25.60
71649;BMP180;59492;45.638;11.714;2022-12-07T10:10:30;100790.40;;;25.48
71649;BMP180;59492;45.638;11.714;2022-12-07T10:12:59;100789.00;;;25.40
71649;BMP180;59492;45.638;11.714;2022-12-07T10:15:54;100787.60;;;25.30
71649;BMP180;59492;45.638;11.714;2022-12-07T10:21:13;100781.40;;;25.20
71649;BMP180;59492;45.638;11.714;2022-12-07T10:23:58;100784.40;;;25.10
71649;BMP180;59492;45.638;11.714;2022-12-07T10:26:37;100783.40;;;25.02
71649;BMP180;59492;45.638;11.714;2022-12-07T10:29:34;100779.80;;;25.00
71649;BMP180;59492;45.638;11.714;2022-12-07T10:34:39;100776.20;;;24.82
71649;BMP180;59492;45.638;11.714;2022-12-07T10:39:58;100773.00;;;24.70
71649;BMP180;59492;45.638;11.714;2022-12-07T10:42:24;100770.20;;;24.64
71649;BMP180;59492;45.638;11.714;2022-12-07T10:45:14;100769.00;;;24.60
71649;BMP180;59492;45.638;11.714;2022-12-07T10:56:28;100764.00;;;24.30
71649;BMP180;59492;45.638;11.714;2022-12-07T11:01:39;100762.80;;;24.20
71649;BMP180;59492;45.638;11.714;2022-12-07T11:04:24;100759.20;;;24.10
71649;BMP180;59492;45.638;11.714;2022-12-07T11:06:58;100758.00;;;24.04
71649;BMP180;59492;45.638;11.714;2022-12-07T11:15:04;100758.40;;;23.90
71649;BMP180;59492;45.638;11.714;2022-12-07T11:17:47;100750.60;;;23.80
71649;BMP180;59492;45.638;11.714;2022-12-07T11:20:17;100746.00;;;23.72
71649;BMP180;59492;45.638;11.714;2022-12-07T11:22:51;100741.60;;;23.70
71649;BMP180;59492;45.638;11.714;2022-12-07T11:25:32;100734.00;;;23.60
71649;BMP180;59492;45.638;11.714;2022-12-07T11:38:58;100713.80;;;23.30
71649;BMP180;59492;45.638;11.714;2022-12-07T11:41:35;100709.80;;;23.30
71649;BMP180;59492;45.638;11.714;2022-12-07T11:44:20;100701.40;;;23.20
71649;BMP180;59492;45.638;11.714;2022-12-07T11:46:54;100701.20;;;23.16
71649;BMP180;59492;45.638;11.714;2022-12-07T11:49:43;100694.80;;;23.10
71649;BMP180;59492;45.638;11.714;2022-12-07T11:52:18;100694.60;;;23.00
71649;BMP180;59492;45.638;11.714;2022-12-07T11:54:46;100693.00;;;23.00
71649;BMP180;59492;45.638;11.714;2022-12-07T11:57:20;100692.40;;;22.90
71649;BMP180;59492;45.638;11.714;2022-12-07T11:59:52;100695.20;;;22.90
71649;BMP180;59492;45.638;11.714;2022-12-07T12:02:26;100695.00;;;22.80
71649;BMP180;59492;45.638;11.714;2022-12-07T12:05:02;100683.40;;;22.80
71649;BMP180;59492;45.638;11.714;2022-12-07T12:07:31;100684.00;;;22.70
71649;BMP180;59492;45.638;11.714;2022-12-07T12:10:06;100684.00;;;22.70
71649;BMP180;59492;45.638;11.714;2022-12-07T12:20:42;100671.20;;;22.40
71649;BMP180;59492;45.638;11.714;2022-12-07T12:23:17;100666.60;;;22.40
71649;BMP180;59492;45.638;11.714;2022-12-07T12:26:26;100668.80;;;22.40
71649;BMP180;59492;45.638;11.714;2022-12-07T12:28:58;100663.20;;;22.30
71649;BMP180;59492;45.638;11.714;2022-12-07T12:33:57;100666.80;;;22.20
71649;BMP180;59492;45.638;11.714;2022-12-07T12:39:09;100665.20;;;22.20
71649;BMP180;59492;45.638;11.714;2022-12-07T12:46:58;100661.00;;;22.08
71649;BMP180;59492;45.638;11.714;2022-12-07T12:51:52;100659.00;;;22.00
71649;BMP180;59492;45.638;11.714;2022-12-07T12:54:19;100654.40;;;21.90
71649;BMP180;59492;45.638;11.714;2022-12-07T12:59:36;100645.40;;;21.86
71649;BMP180;59492;45.638;11.714;2022-12-07T13:02:28;100648.40;;;21.84
71649;BMP180;59492;45.638;11.714;2022-12-07T13:13:04;100647.60;;;21.70
71649;BMP180;59492;45.638;11.714;2022-12-07T13:21:46;100642.20;;;21.60
71649;BMP180;59492;45.638;11.714;2022-12-07T13:29:16;100636.00;;;21.60
71649;BMP180;59492;45.638;11.714;2022-12-07T13:32:02;100635.60;;;21.52
71649;BMP180;59492;45.638;11.714;2022-12-07T13:34:31;100637.60;;;21.50
71649;BMP180;59492;45.638;11.714;2022-12-07T13:36:58;100634.20;;;21.50
71649;BMP180;59492;45.638;11.714;2022-12-07T13:39:26;100636.20;;;21.46
71649;BMP180;59492;45.638;11.714;2022-12-07T13:41:54;100632.20;;;21.40
71649;BMP180;59492;45.638;11.714;2022-12-07T13:44:23;100630.00;;;21.40
71649;BMP180;59492;45.638;11.714;2022-12-07T13:47:17;100631.80;;;21.40
71649;BMP180;59492;45.638;11.714;2022-12-07T13:49:50;100632.20;;;21.30
71649;BMP180;59492;45.638;11.714;2022-12-07T13:52:27;100635.20;;;21.30
71649;BMP180;59492;45.638;11.714;2022-12-07T13:54:59;100635.20;;;21.30
71649;BMP180;59492;45.638;11.714;2022-12-07T13:57:27;100631.60;;;21.30
71649;BMP180;59492;45.638;11.714;2022-12-07T13:59:53;100631.40;;;21.30
71649;BMP180;59492;45.638;11.714;2022-12-07T14:02:26;100632.20;;;21.22
71649;BMP180;59492;45.638;11.714;2022-12-07T14:05:25;100631.60;;;21.20
71649;BMP180;59492;45.638;11.714;2022-12-07T14:08:02;100631.00;;;21.18
71649;BMP180;59492;45.638;11.714;2022-12-07T14:12:56;100623.80;;;21.20
71649;BMP180;59492;45.638;11.714;2022-12-07T14:15:25;100626.60;;;21.30
71649;BMP180;59492;45.638;11.714;2022-12-07T14:17:54;100623.00;;;21.26
71649;BMP180;59492;45.638;11.714;2022-12-07T14:22:55;100623.20;;;21.20
71649;BMP180;59492;45.638;11.714;2022-12-07T14:25:22;100624.60;;;21.20
71649;BMP180;59492;45.638;11.714;2022-12-07T14:27:57;100622.40;;;21.20
71649;BMP180;59492;45.638;11.714;2022-12-07T14:30:26;100622.60;;;21.14
71649;BMP180;59492;45.638;11.714;2022-12-07T14:33:00;100626.80;;;21.10
71649;BMP180;59492;45.638;11.714;2022-12-07T14:35:27;100631.00;;;21.10
71649;BMP180;59492;45.638;11.714;2022-12-07T14:37:53;100627.40;;;21.10
71649;BMP180;59492;45.638;11.714;2022-12-07T14:40:23;100627.20;;;21.00
71649;BMP180;59492;45.638;11.714;2022-12-07T14:42:57;100629.40;;;21.00
71649;BMP180;59492;45.638;11.714;2022-12-07T14:45:24;100631.60;;;20.90
71649;BMP180;59492;45.638;11.714;2022-12-07T14:47:49;100631.20;;;20.90
71649;BMP180;59492;45.638;11.714;2022-12-07T14:50:22;100637.00;;;20.88
71649;BMP180;59492;45.638;11.714;2022-12-07T14:53:00;100633.20;;;20.80
71649;BMP180;59492;45.638;11.714;2022-12-07T14:55:29;100638.20;;;20.80
71649;BMP180;59492;45.638;11.714;2022-12-07T14:57:56;100640.40;;;20.80
71649;BMP180;59492;45.638;11.714;2022-12-07T15:00:24;100642.60;;;20.80
71649;BMP180;59492;45.638;11.714;2022-12-07T15:02:50;100641.20;;;20.70
71649;BMP180;59492;45.638;11.714;2022-12-07T15:05:17;100643.80;;;20.68
71649;BMP180;59492;45.638;11.714;2022-12-07T15:07:44;100641.20;;;20.60
71649;BMP180;59492;45.638;11.714;2022-12-07T15:10:22;100643.80;;;20.60
71649;BMP180;59492;45.638;11.714;2022-12-07T15:12:48;100644.20;;;20.50
71649;BMP180;59492;45.638;11.714;2022-12-07T15:15:15;100647.00;;;20.50
71649;BMP180;59492;45.638;11.714;2022-12-07T15:17:42;100648.60;;;20.44
71649;BMP180;59492;45.638;11.714;2022-12-07T15:20:12;100652.40;;;20.40
71649;BMP180;59492;45.638;11.714;2022-12-07T15:22:38;100656.00;;;20.40
71649;BMP180;59492;45.638;11.714;2022-12-07T15:25:04;100657.60;;;20.34
71649;BMP180;59492;45.638;11.714;2022-12-07T15:27:31;100655.80;;;20.30
71649;BMP180;59492;45.638;11.714;2022-12-07T15:29:57;100658.40;;;20.30
71649;BMP180;59492;45.638;11.714;2022-12-07T15:32:22;100658.60;;;20.30
71649;BMP180;59492;45.638;11.714;2022-12-07T15:34:48;100662.60;;;20.30
71649;BMP180;59492;45.638;11.714;2022-12-07T15:37:15;100663.00;;;20.30
71649;BMP180;59492;45.638;11.714;2022-12-07T15:39:41;100666.20;;;20.20
71649;BMP180;59492;45.638;11.714;2022-12-07T15:42:06;100662.60;;;20.18
71649;BMP180;59492;45.638;11.714;2022-12-07T15:44:32;100663.20;;;20.10
71649;BMP180;59492;45.638;11.714;2022-12-07T15:47:16;100663.20;;;20.06
71649;BMP180;59492;45.638;11.714;2022-12-07T15:49:42;100663.20;;;20.02